createdAt,value
2023-03-26T00:02:46.107Z,99133.25
2023-03-26T00:07:48.707Z,99142.22
2023-03-26T00:12:50.243Z,99144.38
2023-03-26T00:17:54.153Z,99148.81
2023-03-26T00:22:56.291Z,99153.31
2023-03-26T00:27:58.451Z,99152.41
2023-03-26T00:33:00.147Z,99149.25
2023-03-26T00:38:01.756Z,99159.16
2023-03-26T00:43:10.178Z,99153.78
2023-03-26T00:48:12.821Z,99146.88
2023-03-26T00:53:15.535Z,99151.00
2023-03-26T00:58:17.133Z,99141.41
2023-03-26T01:03:28.080Z,99149.91
2023-03-26T01:08:49.003Z,99141.66
2023-03-26T01:13:54.619Z,99145.91
2023-03-26T01:18:58.751Z,99132.19
2023-03-26T01:24:05.366Z,99130.34
2023-03-26T01:29:11.461Z,99140.34
2023-03-26T01:34:30.560Z,99137.16
2023-03-26T01:39:38.844Z,99138.25
2023-03-26T01:45:32.753Z,99143.19
2023-03-26T01:50:34.320Z,99138.69
2023-03-26T01:55:53.947Z,99137.59
2023-03-26T02:01:06.942Z,99135.00
2023-03-26T02:06:26.792Z,99125.53
2023-03-26T02:11:35.463Z,99125.81
2023-03-26T02:16:37.493Z,99132.16
2023-03-26T02:21:39.438Z,99132.41
2023-03-26T02:26:41.227Z,99144.91
2023-03-26T02:31:48.290Z,99139.66
2023-03-26T02:36:50.094Z,99136.88
2023-03-26T02:41:52.019Z,99136.22
2023-03-26T02:46:54.165Z,99141.81
2023-03-26T02:52:18.513Z,99141.13
2023-03-26T02:57:24.725Z,99152.16
2023-03-26T03:02:32.367Z,99140.63
2023-03-26T03:07:46.815Z,99135.56
2023-03-26T03:12:48.732Z,99144.28
2023-03-26T03:17:50.537Z,99137.53
2023-03-26T03:22:52.466Z,99138.97
2023-03-26T03:27:54.286Z,99146.50
2023-03-26T03:32:58.368Z,99130.06
2023-03-26T03:38:00.628Z,99136.72
2023-03-26T03:43:06.114Z,99137.97
2023-03-26T03:48:18.822Z,99136.81
2023-03-26T03:53:25.917Z,99125.19
2023-03-26T03:58:31.080Z,99121.59
2023-03-26T04:03:40.365Z,99131.38
2023-03-26T04:08:46.770Z,99115.41
2023-03-26T04:13:48.905Z,99130.88
2023-03-26T04:19:02.289Z,99120.31
2023-03-26T04:24:04.990Z,99124.69
2023-03-26T04:29:27.727Z,99121.59
2023-03-26T04:34:29.901Z,99120.16
2023-03-26T04:39:38.965Z,99117.94
2023-03-26T04:44:59.884Z,99114.59
2023-03-26T04:50:06.623Z,99112.28
2023-03-26T04:55:33.553Z,99106.38
2023-03-26T05:00:43.318Z,99116.13
2023-03-26T05:05:45.352Z,99115.06
2023-03-26T05:10:47.244Z,99109.00
2023-03-26T05:15:58.518Z,99111.38
2023-03-26T05:21:11.226Z,99113.75
2023-03-26T05:26:14.651Z,99113.28
2023-03-26T05:31:18.827Z,99121.97
2023-03-26T05:36:23.013Z,99126.34
2023-03-26T05:41:36.517Z,99127.88
2023-03-26T05:46:38.868Z,99130.41
2023-03-26T05:51:41.295Z,99136.44
2023-03-26T05:57:04.501Z,99133.28
2023-03-26T06:02:25.150Z,99136.84
2023-03-26T06:07:52.864Z,99138.63
2023-03-26T06:12:55.425Z,99133.97
2023-03-26T06:17:57.851Z,99137.31
2023-03-26T06:23:32.085Z,99135.22
2023-03-26T06:29:02.683Z,99133.09
2023-03-26T06:34:14.879Z,99132.78
2023-03-26T06:39:16.763Z,99138.38
2023-03-26T06:44:37.108Z,99124.28
2023-03-26T06:49:58.972Z,99133.06
2023-03-26T06:55:13.990Z,99133.94
2023-03-26T07:00:24.196Z,99129.13
2023-03-26T07:05:44.156Z,99119.38
2023-03-26T07:10:46.528Z,99119.38
2023-03-26T07:16:07.299Z,99125.09
2023-03-26T07:21:25.898Z,99119.25
2023-03-26T07:26:55.639Z,99118.06
2023-03-26T07:32:36.472Z,99116.81
2023-03-26T07:38:20.968Z,99113.84
2023-03-26T07:43:44.048Z,99110.03
2023-03-26T07:49:12.831Z,99111.69
2023-03-26T07:54:27.125Z,99111.19
2023-03-26T07:59:51.612Z,99121.94
2023-03-26T08:05:10.425Z,99121.88
2023-03-26T08:11:07.285Z,99116.31
2023-03-26T08:16:36.377Z,99109.84
2023-03-26T08:21:42.147Z,99109.78
2023-03-26T08:27:01.489Z,99109.31
2023-03-26T08:32:05.255Z,99112.53
2023-03-26T08:37:06.829Z,99108.91
2023-03-26T08:42:30.145Z,99103.94
2023-03-26T08:47:39.872Z,99108.34
2023-03-26T08:53:00.888Z,99101.25
2023-03-26T08:58:34.984Z,99097.00
2023-03-26T09:04:01.718Z,99088.31
2023-03-26T09:09:20.325Z,99079.59
2023-03-26T09:14:21.834Z,99074.09
2023-03-26T09:19:48.260Z,99072.69
2023-03-26T09:25:11.375Z,99073.69
2023-03-26T09:30:47.129Z,99063.72
2023-03-26T09:35:54.095Z,99062.44
2023-03-26T09:41:27.761Z,99061.66
2023-03-26T09:46:47.886Z,99048.19
2023-03-26T09:52:36.941Z,99043.44
2023-03-26T09:58:03.334Z,99039.69
2023-03-26T10:03:29.635Z,99039.66
2023-03-26T10:08:47.312Z,99031.38
2023-03-26T10:14:08.385Z,99019.28
2023-03-26T10:19:19.763Z,99012.69
2023-03-26T10:24:24.400Z,99016.34
2023-03-26T10:30:10.166Z,99001.06
2023-03-26T10:35:22.369Z,98985.59
2023-03-26T10:40:31.729Z,98982.91
2023-03-26T10:45:45.741Z,98963.44
2023-03-26T10:51:02.588Z,98961.06
2023-03-26T10:56:32.927Z,98944.06
2023-03-26T11:01:56.917Z,98936.13
2023-03-26T11:07:10.760Z,98930.16
2023-03-26T11:12:47.369Z,98929.97
2023-03-26T11:18:04.067Z,98913.59
2023-03-26T11:23:20.679Z,98916.47
2023-03-26T11:28:40.374Z,98911.63
2023-03-26T11:33:45.553Z,98908.38
2023-03-26T11:38:50.522Z,98907.13
2023-03-26T11:44:13.706Z,98896.19
2023-03-26T11:49:18.314Z,98888.09
2023-03-26T11:54:21.040Z,98880.69
2023-03-26T11:59:30.270Z,98881.47
2023-03-26T12:05:14.952Z,98886.03
2023-03-26T12:10:28.489Z,98886.03
2023-03-26T12:15:32.140Z,98880.78
2023-03-26T12:20:36.659Z,98870.25
2023-03-26T12:25:39.125Z,98867.56
2023-03-26T12:30:44.949Z,98877.97
2023-03-26T12:35:46.583Z,98867.44
2023-03-26T12:40:50.546Z,98867.88
2023-03-26T12:46:03.739Z,98867.88
2023-03-26T12:51:49.369Z,98871.19
2023-03-26T12:57:18.193Z,98859.38
2023-03-26T13:02:59.030Z,98858.75
2023-03-26T13:08:19.080Z,98852.31
2023-03-26T13:13:21.462Z,98853.38
2023-03-26T13:18:48.181Z,98838.84
2023-03-26T13:24:00.585Z,98829.38
2023-03-26T13:29:25.627Z,98824.84
2023-03-26T13:34:38.117Z,98825.66
2023-03-26T13:40:00.281Z,98817.19
2023-03-26T13:45:10.780Z,98810.34
2023-03-26T13:50:22.709Z,98806.03
2023-03-26T13:55:37.427Z,98806.22
2023-03-26T14:01:21.893Z,98811.81
2023-03-26T14:06:23.490Z,98814.44
2023-03-26T14:11:50.396Z,98820.38
2023-03-26T14:16:57.959Z,98819.66
2023-03-26T14:22:05.181Z,98809.34
2023-03-26T14:27:21.787Z,98811.22
2023-03-26T14:32:50.836Z,98818.50
2023-03-26T14:37:58.637Z,98827.22
2023-03-26T14:43:15.331Z,98829.94
2023-03-26T14:48:34.802Z,98824.88
2023-03-26T14:53:40.200Z,98814.72
2023-03-26T14:58:44.366Z,98817.50
2023-03-26T15:04:04.827Z,98823.81
2023-03-26T15:09:30.347Z,98805.16
2023-03-26T15:14:50.966Z,98806.16
2023-03-26T15:20:26.075Z,98806.53
2023-03-26T15:25:46.444Z,98807.38
2023-03-26T15:31:06.626Z,98796.94
2023-03-26T15:36:21.387Z,98801.97
2023-03-26T15:41:49.478Z,98793.22
2023-03-26T15:46:58.323Z,98796.84
2023-03-26T15:52:18.954Z,98795.81
2023-03-26T15:57:31.543Z,98803.06
2023-03-26T16:02:53.714Z,98804.16
2023-03-26T16:08:04.410Z,98813.16
2023-03-26T16:13:27.927Z,98816.50
2023-03-26T16:18:58.409Z,98809.56
2023-03-26T16:24:03.075Z,98806.94
2023-03-26T16:29:16.653Z,98814.75
2023-03-26T16:34:27.198Z,98810.94
2023-03-26T16:39:44.258Z,98820.59
2023-03-26T16:45:12.378Z,98816.69
2023-03-26T16:50:36.259Z,98817.06
2023-03-26T16:55:47.977Z,98814.50
2023-03-26T17:00:53.704Z,98816.81
2023-03-26T17:05:58.379Z,98818.09
2023-03-26T17:11:08.853Z,98828.78
2023-03-26T17:16:24.429Z,98830.28
2023-03-26T17:21:46.318Z,98821.81
2023-03-26T17:26:58.066Z,98827.50
2023-03-26T17:32:17.960Z,98825.19
2023-03-26T17:37:19.464Z,98833.41
2023-03-26T17:42:35.366Z,98843.00
2023-03-26T17:47:38.233Z,98840.13
2023-03-26T17:52:59.918Z,98836.47
2023-03-26T17:58:03.869Z,98841.44
2023-03-26T18:03:44.196Z,98850.97
2023-03-26T18:08:53.291Z,98849.00
2023-03-26T18:14:08.780Z,98847.63
2023-03-26T18:19:22.494Z,98856.22
2023-03-26T18:24:33.188Z,98862.56
2023-03-26T18:29:35.653Z,98860.66
2023-03-26T18:34:39.891Z,98854.91
2023-03-26T18:39:44.151Z,98853.81
2023-03-26T18:44:48.287Z,98849.56
2023-03-26T18:49:53.944Z,98842.72
2023-03-26T18:54:56.864Z,98844.81
2023-03-26T19:00:15.578Z,98846.78
2023-03-26T19:05:18.681Z,98838.53
2023-03-26T19:10:22.085Z,98835.16
2023-03-26T19:15:26.058Z,98835.16
2023-03-26T19:20:29.953Z,98826.34
2023-03-26T19:25:36.875Z,98820.38
2023-03-26T19:30:40.686Z,98814.94
2023-03-26T19:35:45.366Z,98809.13
2023-03-26T19:40:47.082Z,98802.50
2023-03-26T19:45:59.748Z,98801.94
2023-03-26T19:51:06.104Z,98798.78
2023-03-26T19:56:12.992Z,98790.00
2023-03-26T20:01:20.097Z,98788.19
2023-03-26T20:06:30.766Z,98774.72
2023-03-26T20:11:38.702Z,98777.22
2023-03-26T20:16:42.100Z,98767.91
2023-03-26T20:21:44.764Z,98760.16
2023-03-26T20:26:46.602Z,98757.09
2023-03-26T20:31:49.278Z,98758.41
2023-03-26T20:37:01.315Z,98755.00
2023-03-26T20:42:03.264Z,98754.03
2023-03-26T20:47:04.869Z,98752.72
2023-03-26T20:52:06.522Z,98747.69
2023-03-26T20:57:09.491Z,98748.56
2023-03-26T21:02:12.108Z,98741.97
2023-03-26T21:07:18.076Z,98740.97
2023-03-26T21:12:32.271Z,98737.81
2023-03-26T21:17:34.205Z,98739.06
2023-03-26T21:23:06.459Z,98741.72
2023-03-26T21:28:22.242Z,98745.00
2023-03-26T21:33:28.328Z,98734.91
2023-03-26T21:38:32.329Z,98742.38
2023-03-26T21:43:33.921Z,98764.50
2023-03-26T21:48:35.843Z,98767.94
2023-03-26T21:53:37.583Z,98769.63
2023-03-26T21:59:05.640Z,98784.16
2023-03-26T22:04:18.947Z,98793.47
2023-03-26T22:09:30.042Z,98805.19
2023-03-26T22:14:38.038Z,98794.38
2023-03-26T22:19:39.675Z,98793.25
2023-03-26T22:24:41.271Z,98791.22
2023-03-26T22:29:43.135Z,98796.53
2023-03-26T22:34:44.970Z,98800.22
2023-03-26T22:39:46.575Z,98792.22
2023-03-26T22:44:48.259Z,98790.91
2023-03-26T22:49:49.814Z,98795.72
2023-03-26T22:54:51.848Z,98791.50
2023-03-26T22:59:53.389Z,98791.50
2023-03-26T23:04:55.014Z,98798.06
2023-03-26T23:09:57.082Z,98794.25
2023-03-26T23:14:58.701Z,98797.00
2023-03-26T23:20:00.658Z,98795.91
2023-03-26T23:25:02.251Z,98798.25
2023-03-26T23:30:04.940Z,98811.63
2023-03-26T23:35:07.033Z,98808.88
2023-03-26T23:40:10.351Z,98819.81
2023-03-26T23:45:13.034Z,98821.22
2023-03-26T23:50:14.764Z,98812.09
2023-03-26T23:55:16.490Z,98822.59
